Airport View

Enter AWOS ICAO identifier for current METAR.

ex. KFNL

KY51 251250Z AUTO 17008KT 10SM SCT039 SCT044 BKN050 16/15 A2989 RMK AO1 T01550152

25 Sep 2020 12:52

Frequency: 118.975

Phone: 608-637-2925

Other Area AWOS: KCMY - KLSE - KOVS - KVOK

TAF KLSE 251133Z 2512/2612 15007KT P6SM SCT025 FM251700 18013G22KT P6SM SCT250 FM260000 18013KT P6SM SCT250 FM260400 20007KT P6SM BKN150